sensor_id;sensor_type;location;lat;lon;timestamp;temperature;humidity
69938;DHT22;57248;47.320;15.998;2022-12-29T00:01:28;-2.94;93.60
69938;DHT22;57248;47.320;15.998;2022-12-29T00:04:00;-2.90;95.01
69938;DHT22;57248;47.320;15.998;2022-12-29T00:06:32;-2.80;95.13
69938;DHT22;57248;47.320;15.998;2022-12-29T00:09:04;-2.91;95.21
69938;DHT22;57248;47.320;15.998;2022-12-29T00:11:36;-3.01;94.03
69938;DHT22;57248;47.320;15.998;2022-12-29T00:14:09;-3.08;92.78
69938;DHT22;57248;47.320;15.998;2022-12-29T00:17:00;-3.04;94.39
69938;DHT22;57248;47.320;15.998;2022-12-29T00:19:33;-3.08;95.84
69938;DHT22;57248;47.320;15.998;2022-12-29T00:22:24;-3.00;96.29
69938;DHT22;57248;47.320;15.998;2022-12-29T00:25:15;-2.96;96.94
69938;DHT22;57248;47.320;15.998;2022-12-29T00:28:08;-2.93;96.88
69938;DHT22;57248;47.320;15.998;2022-12-29T00:31:00;-2.88;96.51
69938;DHT22;57248;47.320;15.998;2022-12-29T00:33:51;-2.96;95.94
69938;DHT22;57248;47.320;15.998;2022-12-29T00:36:42;-3.03;94.21
69938;DHT22;57248;47.320;15.998;2022-12-29T00:39:17;-3.11;94.46
69938;DHT22;57248;47.320;15.998;2022-12-29T00:42:15;-3.19;93.98
69938;DHT22;57248;47.320;15.998;2022-12-29T00:45:05;-3.27;94.16
69938;DHT22;57248;47.320;15.998;2022-12-29T00:47:37;-3.27;93.77
69938;DHT22;57248;47.320;15.998;2022-12-29T00:50:09;-3.31;94.89
69938;DHT22;57248;47.320;15.998;2022-12-29T00:52:41;-3.44;93.99
69938;DHT22;57248;47.320;15.998;2022-12-29T00:55:13;-3.39;95.53
69938;DHT22;57248;47.320;15.998;2022-12-29T00:57:45;-3.39;96.10
69938;DHT22;57248;47.320;15.998;2022-12-29T01:00:17;-3.38;94.98
69938;DHT22;57248;47.320;15.998;2022-12-29T01:02:49;-3.37;94.64
69938;DHT22;57248;47.320;15.998;2022-12-29T01:05:21;-3.41;94.24
69938;DHT22;57248;47.320;15.998;2022-12-29T01:07:53;-3.41;95.64
69938;DHT22;57248;47.320;15.998;2022-12-29T01:10:25;-3.37;95.58
69938;DHT22;57248;47.320;15.998;2022-12-29T01:12:57;-3.48;95.80
69938;DHT22;57248;47.320;15.998;2022-12-29T01:15:30;-3.45;95.80
69938;DHT22;57248;47.320;15.998;2022-12-29T01:18:02;-3.34;96.44
69938;DHT22;57248;47.320;15.998;2022-12-29T01:20:34;-3.37;96.34
69938;DHT22;57248;47.320;15.998;2022-12-29T01:23:06;-3.34;95.33
69938;DHT22;57248;47.320;15.998;2022-12-29T01:25:38;-3.45;94.77
69938;DHT22;57248;47.320;15.998;2022-12-29T01:28:04;-3.58;95.02
69938;DHT22;57248;47.320;15.998;2022-12-29T01:30:37;-3.63;95.08
69938;DHT22;57248;47.320;15.998;2022-12-29T01:33:12;-3.60;95.10
69938;DHT22;57248;47.320;15.998;2022-12-29T01:35:44;-3.65;94.70
69938;DHT22;57248;47.320;15.998;2022-12-29T01:38:16;-3.62;94.65
69938;DHT22;57248;47.320;15.998;2022-12-29T01:40:48;-3.65;94.72
69938;DHT22;57248;47.320;15.998;2022-12-29T01:46:41;-3.66;95.43
69938;DHT22;57248;47.320;15.998;2022-12-29T01:49:24;-3.69;94.29
69938;DHT22;57248;47.320;15.998;2022-12-29T01:52:05;-3.75;94.51
69938;DHT22;57248;47.320;15.998;2022-12-29T01:54:49;-3.69;96.24
69938;DHT22;57248;47.320;15.998;2022-12-29T01:57:31;-3.70;96.73
69938;DHT22;57248;47.320;15.998;2022-12-29T02:00:10;-3.63;97.40
69938;DHT22;57248;47.320;15.998;2022-12-29T02:02:50;-3.68;95.88
69938;DHT22;57248;47.320;15.998;2022-12-29T02:05:28;-3.77;95.01
69938;DHT22;57248;47.320;15.998;2022-12-29T02:08:01;-3.83;94.62
69938;DHT22;57248;47.320;15.998;2022-12-29T02:10:35;-3.83;96.13
69938;DHT22;57248;47.320;15.998;2022-12-29T02:13:01;-3.86;94.76
69938;DHT22;57248;47.320;15.998;2022-12-29T02:15:58;-3.90;94.26
69938;DHT22;57248;47.320;15.998;2022-12-29T02:27:52;-4.01;95.89
69938;DHT22;57248;47.320;15.998;2022-12-29T02:45:00;-4.13;94.46
69938;DHT22;57248;47.320;15.998;2022-12-29T02:48:04;-4.07;97.05
69938;DHT22;57248;47.320;15.998;2022-12-29T02:50:46;-4.07;95.38
69938;DHT22;57248;47.320;15.998;2022-12-29T02:53:20;-4.21;94.10
69938;DHT22;57248;47.320;15.998;2022-12-29T02:56:12;-4.15;94.65
69938;DHT22;57248;47.320;15.998;2022-12-29T02:58:45;-4.21;94.53
69938;DHT22;57248;47.320;15.998;2022-12-29T03:07:43;-4.17;97.42
69938;DHT22;57248;47.320;15.998;2022-12-29T03:13:39;-3.91;98.81
69938;DHT22;57248;47.320;15.998;2022-12-29T03:16:44;-3.86;99.20
69938;DHT22;57248;47.320;15.998;2022-12-29T03:19:23;-3.82;98.48
69938;DHT22;57248;47.320;15.998;2022-12-29T03:22:00;-3.90;96.95
69938;DHT22;57248;47.320;15.998;2022-12-29T03:25:20;-4.07;96.32
69938;DHT22;57248;47.320;15.998;2022-12-29T03:28:02;-4.10;96.47
69938;DHT22;57248;47.320;15.998;2022-12-29T03:30:41;-4.10;96.96
69938;DHT22;57248;47.320;15.998;2022-12-29T03:33:20;-4.18;96.58
69938;DHT22;57248;47.320;15.998;2022-12-29T03:35:59;-4.14;96.09
69938;DHT22;57248;47.320;15.998;2022-12-29T03:38:50;-4.21;96.17
69938;DHT22;57248;47.320;15.998;2022-12-29T03:41:31;-4.27;96.56
69938;DHT22;57248;47.320;15.998;2022-12-29T03:44:06;-4.24;96.75
69938;DHT22;57248;47.320;15.998;2022-12-29T03:46:45;-4.20;97.63
69938;DHT22;57248;47.320;15.998;2022-12-29T03:49:17;-4.25;97.85
69938;DHT22;57248;47.320;15.998;2022-12-29T03:51:49;-4.15;98.37
69938;DHT22;57248;47.320;15.998;2022-12-29T03:54:23;-4.08;97.68
69938;DHT22;57248;47.320;15.998;2022-12-29T03:56:55;-4.22;96.32
69938;DHT22;57248;47.320;15.998;2022-12-29T03:59:37;-4.32;95.54
69938;DHT22;57248;47.320;15.998;2022-12-29T04:02:10;-4.32;95.53
69938;DHT22;57248;47.320;15.998;2022-12-29T04:04:42;-4.30;95.48
69938;DHT22;57248;47.320;15.998;2022-12-29T04:07:14;-4.25;96.39
69938;DHT22;57248;47.320;15.998;2022-12-29T04:09:49;-4.35;95.47
69938;DHT22;57248;47.320;15.998;2022-12-29T04:12:23;-4.40;95.97
69938;DHT22;57248;47.320;15.998;2022-12-29T04:14:49;-4.38;97.03
69938;DHT22;57248;47.320;15.998;2022-12-29T04:17:21;-4.35;95.89
69938;DHT22;57248;47.320;15.998;2022-12-29T04:19:53;-4.42;95.71
69938;DHT22;57248;47.320;15.998;2022-12-29T04:22:45;-4.47;95.84
69938;DHT22;57248;47.320;15.998;2022-12-29T04:25:17;-4.48;96.32
69938;DHT22;57248;47.320;15.998;2022-12-29T04:27:49;-4.49;95.91
69938;DHT22;57248;47.320;15.998;2022-12-29T04:30:43;-4.48;97.34
69938;DHT22;57248;47.320;15.998;2022-12-29T04:33:38;-4.59;97.92
69938;DHT22;57248;47.320;15.998;2022-12-29T04:36:10;-4.49;96.94
69938;DHT22;57248;47.320;15.998;2022-12-29T04:38:42;-4.59;97.43
69938;DHT22;57248;47.320;15.998;2022-12-29T04:41:21;-4.48;96.98
69938;DHT22;57248;47.320;15.998;2022-12-29T04:43:53;-4.52;96.02
69938;DHT22;57248;47.320;15.998;2022-12-29T04:46:37;-4.57;95.52
69938;DHT22;57248;47.320;15.998;2022-12-29T04:49:29;-4.59;96.09
69938;DHT22;57248;47.320;15.998;2022-12-29T04:52:14;-4.57;95.94
69938;DHT22;57248;47.320;15.998;2022-12-29T04:54:46;-4.62;95.70
69938;DHT22;57248;47.320;15.998;2022-12-29T04:57:20;-4.66;94.99
69938;DHT22;57248;47.320;15.998;2022-12-29T04:59:55;-4.71;96.35
69938;DHT22;57248;47.320;15.998;2022-12-29T05:02:27;-4.62;96.57
69938;DHT22;57248;47.320;15.998;2022-12-29T05:04:59;-4.61;97.49
69938;DHT22;57248;47.320;15.998;2022-12-29T05:07:33;-4.62;96.75
69938;DHT22;57248;47.320;15.998;2022-12-29T05:09:59;-4.55;99.33
69938;DHT22;57248;47.320;15.998;2022-12-29T05:12:32;-4.58;97.61
69938;DHT22;57248;47.320;15.998;2022-12-29T05:15:06;-4.75;96.57
69938;DHT22;57248;47.320;15.998;2022-12-29T05:17:39;-4.78;96.50
69938;DHT22;57248;47.320;15.998;2022-12-29T05:20:11;-4.89;96.66
69938;DHT22;57248;47.320;15.998;2022-12-29T05:22:43;-5.03;97.94
69938;DHT22;57248;47.320;15.998;2022-12-29T05:25:15;-5.01;97.09
69938;DHT22;57248;47.320;15.998;2022-12-29T05:28:02;-4.92;96.81
69938;DHT22;57248;47.320;15.998;2022-12-29T05:30:48;-4.89;97.71
69938;DHT22;57248;47.320;15.998;2022-12-29T05:33:21;-4.82;96.35
69938;DHT22;57248;47.320;15.998;2022-12-29T05:35:53;-4.65;97.93
69938;DHT22;57248;47.320;15.998;2022-12-29T05:38:26;-4.76;96.08
69938;DHT22;57248;47.320;15.998;2022-12-29T05:40:58;-4.86;96.91
69938;DHT22;57248;47.320;15.998;2022-12-29T05:44:02;6.28;99.99
69938;DHT22;57248;47.320;15.998;2022-12-29T05:47:12;7.28;73.61
69938;DHT22;57248;47.320;15.998;2022-12-29T05:50:03;0.48;82.84
69938;DHT22;57248;47.320;15.998;2022-12-29T05:52:54;-1.94;86.05
69938;DHT22;57248;47.320;15.998;2022-12-29T05:55:26;-2.69;90.76
69938;DHT22;57248;47.320;15.998;2022-12-29T05:57:58;-3.21;91.87
69938;DHT22;57248;47.320;15.998;2022-12-29T06:00:31;-3.59;92.33
69938;DHT22;57248;47.320;15.998;2022-12-29T06:03:03;-3.77;92.81
69938;DHT22;57248;47.320;15.998;2022-12-29T06:05:36;-3.87;92.65
69938;DHT22;57248;47.320;15.998;2022-12-29T06:08:08;-4.18;92.99
69938;DHT22;57248;47.320;15.998;2022-12-29T06:10:33;-4.31;93.31
69938;DHT22;57248;47.320;15.998;2022-12-29T06:13:07;-4.55;94.47
69938;DHT22;57248;47.320;15.998;2022-12-29T06:15:42;-4.49;94.17
69938;DHT22;57248;47.320;15.998;2022-12-29T06:18:15;-4.44;93.56
69938;DHT22;57248;47.320;15.998;2022-12-29T06:20:47;-4.49;93.14
69938;DHT22;57248;47.320;15.998;2022-12-29T06:23:21;-4.48;93.54
69938;DHT22;57248;47.320;15.998;2022-12-29T06:25:47;-4.58;92.67
69938;DHT22;57248;47.320;15.998;2022-12-29T06:28:21;-4.62;92.83
69938;DHT22;57248;47.320;15.998;2022-12-29T06:30:53;-4.61;94.08
69938;DHT22;57248;47.320;15.998;2022-12-29T06:33:26;-4.80;95.13
69938;DHT22;57248;47.320;15.998;2022-12-29T06:35:58;-4.75;95.17
69938;DHT22;57248;47.320;15.998;2022-12-29T06:38:30;-4.64;95.17
69938;DHT22;57248;47.320;15.998;2022-12-29T06:41:02;-4.64;94.43
69938;DHT22;57248;47.320;15.998;2022-12-29T06:43:34;-4.69;94.41
69938;DHT22;57248;47.320;15.998;2022-12-29T06:46:32;-4.66;94.31
69938;DHT22;57248;47.320;15.998;2022-12-29T06:49:04;-4.66;94.58
69938;DHT22;57248;47.320;15.998;2022-12-29T06:51:29;-4.73;94.32
69938;DHT22;57248;47.320;15.998;2022-12-29T06:54:01;-4.64;95.98
69938;DHT22;57248;47.320;15.998;2022-12-29T06:56:33;-4.62;94.37
69938;DHT22;57248;47.320;15.998;2022-12-29T06:58:58;-4.64;94.82
69938;DHT22;57248;47.320;15.998;2022-12-29T07:01:32;-4.51;95.28
69938;DHT22;57248;47.320;15.998;2022-12-29T07:04:04;-4.47;94.89
69938;DHT22;57248;47.320;15.998;2022-12-29T07:06:37;-4.37;94.50
69938;DHT22;57248;47.320;15.998;2022-12-29T07:09:09;-4.38;95.41
69938;DHT22;57248;47.320;15.998;2022-12-29T07:11:42;-4.27;94.54
69938;DHT22;57248;47.320;15.998;2022-12-29T07:14:14;-4.08;93.48
69938;DHT22;57248;47.320;15.998;2022-12-29T07:16:47;-3.82;92.47
69938;DHT22;57248;47.320;15.998;2022-12-29T07:19:20;-3.62;92.18
69938;DHT22;57248;47.320;15.998;2022-12-29T07:21:54;-3.31;91.08
69938;DHT22;57248;47.320;15.998;2022-12-29T07:24:27;-3.00;90.07
69938;DHT22;57248;47.320;15.998;2022-12-29T07:26:53;-2.50;89.29
69938;DHT22;57248;47.320;15.998;2022-12-29T07:29:25;-2.22;87.77
69938;DHT22;57248;47.320;15.998;2022-12-29T07:31:57;-2.07;88.16
69938;DHT22;57248;47.320;15.998;2022-12-29T07:34:29;-1.47;87.47
69938;DHT22;57248;47.320;15.998;2022-12-29T07:37:01;-1.12;86.04
69938;DHT22;57248;47.320;15.998;2022-12-29T07:39:33;-1.12;86.72
69938;DHT22;57248;47.320;15.998;2022-12-29T07:42:12;-0.84;86.25
69938;DHT22;57248;47.320;15.998;2022-12-29T07:44:49;-0.68;84.74
69938;DHT22;57248;47.320;15.998;2022-12-29T07:47:35;-0.44;84.56
69938;DHT22;57248;47.320;15.998;2022-12-29T07:50:07;-0.22;84.06
69938;DHT22;57248;47.320;15.998;2022-12-29T07:52:39;-0.12;85.66
69938;DHT22;57248;47.320;15.998;2022-12-29T07:55:11;0.23;85.07
69938;DHT22;57248;47.320;15.998;2022-12-29T07:57:43;0.70;82.45
69938;DHT22;57248;47.320;15.998;2022-12-29T08:00:15;1.20;82.87
69938;DHT22;57248;47.320;15.998;2022-12-29T08:02:47;1.20;80.83
69938;DHT22;57248;47.320;15.998;2022-12-29T08:05:19;2.20;79.24
69938;DHT22;57248;47.320;15.998;2022-12-29T08:07:51;2.10;79.07
69938;DHT22;57248;47.320;15.998;2022-12-29T08:10:23;2.38;79.79
69938;DHT22;57248;47.320;15.998;2022-12-29T08:12:55;2.10;80.62
69938;DHT22;57248;47.320;15.998;2022-12-29T08:15:27;1.86;81.39
69938;DHT22;57248;47.320;15.998;2022-12-29T08:17:59;2.56;79.07
69938;DHT22;57248;47.320;15.998;2022-12-29T08:20:31;2.83;77.72
69938;DHT22;57248;47.320;15.998;2022-12-29T08:23:03;2.91;78.58
69938;DHT22;57248;47.320;15.998;2022-12-29T08:25:35;3.17;78.01
69938;DHT22;57248;47.320;15.998;2022-12-29T08:28:00;3.06;78.05
69938;DHT22;57248;47.320;15.998;2022-12-29T08:30:33;3.26;78.17
69938;DHT22;57248;47.320;15.998;2022-12-29T08:33:05;3.09;78.95
69938;DHT22;57248;47.320;15.998;2022-12-29T08:35:37;3.38;78.36
69938;DHT22;57248;47.320;15.998;2022-12-29T08:38:04;3.58;78.04
69938;DHT22;57248;47.320;15.998;2022-12-29T08:40:36;3.84;76.81
69938;DHT22;57248;47.320;15.998;2022-12-29T08:43:15;4.02;76.70
69938;DHT22;57248;47.320;15.998;2022-12-29T08:45:48;4.43;74.80
69938;DHT22;57248;47.320;15.998;2022-12-29T08:48:20;4.63;75.79
69938;DHT22;57248;47.320;15.998;2022-12-29T08:50:53;5.66;71.17
69938;DHT22;57248;47.320;15.998;2022-12-29T08:53:19;5.18;70.63
69938;DHT22;57248;47.320;15.998;2022-12-29T08:55:59;5.31;72.33
69938;DHT22;57248;47.320;15.998;2022-12-29T08:58:42;5.25;72.06
69938;DHT22;57248;47.320;15.998;2022-12-29T09:01:16;5.38;70.80
69938;DHT22;57248;47.320;15.998;2022-12-29T09:03:48;6.69;68.36
69938;DHT22;57248;47.320;15.998;2022-12-29T09:06:21;8.09;65.00
69938;DHT22;57248;47.320;15.998;2022-12-29T09:08:54;8.57;62.44
69938;DHT22;57248;47.320;15.998;2022-12-29T09:11:26;8.45;61.96
69938;DHT22;57248;47.320;15.998;2022-12-29T09:13:58;8.54;62.37
69938;DHT22;57248;47.320;15.998;2022-12-29T09:16:30;8.92;62.24
69938;DHT22;57248;47.320;15.998;2022-12-29T09:19:02;9.02;60.25
69938;DHT22;57248;47.320;15.998;2022-12-29T09:21:35;10.21;58.43
69938;DHT22;57248;47.320;15.998;2022-12-29T09:24:07;10.26;58.43
69938;DHT22;57248;47.320;15.998;2022-12-29T09:26:40;10.64;56.04
69938;DHT22;57248;47.320;15.998;2022-12-29T09:29:12;10.91;56.12
69938;DHT22;57248;47.320;15.998;2022-12-29T09:31:44;9.87;56.77
69938;DHT22;57248;47.320;15.998;2022-12-29T09:34:16;10.28;57.09
69938;DHT22;57248;47.320;15.998;2022-12-29T09:36:48;10.96;55.45
69938;DHT22;57248;47.320;15.998;2022-12-29T09:39:20;10.70;56.45
69938;DHT22;57248;47.320;15.998;2022-12-29T09:47:43;10.09;58.65
69938;DHT22;57248;47.320;15.998;2022-12-29T09:50:23;11.08;56.82
69938;DHT22;57248;47.320;15.998;2022-12-29T09:53:09;11.03;54.99
69938;DHT22;57248;47.320;15.998;2022-12-29T09:55:53;11.08;55.65
69938;DHT22;57248;47.320;15.998;2022-12-29T10:01:30;11.43;56.05
69938;DHT22;57248;47.320;15.998;2022-12-29T10:04:03;11.06;56.70
69938;DHT22;57248;47.320;15.998;2022-12-29T10:12:26;12.33;53.01
69938;DHT22;57248;47.320;15.998;2022-12-29T10:15:16;11.65;54.17
69938;DHT22;57248;47.320;15.998;2022-12-29T10:21:04;12.24;52.60
69938;DHT22;57248;47.320;15.998;2022-12-29T10:23:42;12.44;52.05
69938;DHT22;57248;47.320;15.998;2022-12-29T10:26:19;13.27;51.55
69938;DHT22;57248;47.320;15.998;2022-12-29T10:28:58;13.98;47.61
69938;DHT22;57248;47.320;15.998;2022-12-29T10:31:42;12.36;50.54
69938;DHT22;57248;47.320;15.998;2022-12-29T10:34:22;12.67;49.72
69938;DHT22;57248;47.320;15.998;2022-12-29T10:37:14;12.99;49.73
69938;DHT22;57248;47.320;15.998;2022-12-29T10:39:52;11.17;51.80
69938;DHT22;57248;47.320;15.998;2022-12-29T10:42:43;11.45;52.78
69938;DHT22;57248;47.320;15.998;2022-12-29T10:45:19;11.54;53.30
69938;DHT22;57248;47.320;15.998;2022-12-29T10:48:06;10.73;55.58
69938;DHT22;57248;47.320;15.998;2022-12-29T10:50:41;11.32;52.70
69938;DHT22;57248;47.320;15.998;2022-12-29T10:53:15;12.74;51.14
69938;DHT22;57248;47.320;15.998;2022-12-29T10:55:49;12.30;51.06
69938;DHT22;57248;47.320;15.998;2022-12-29T10:58:22;13.63;47.75
69938;DHT22;57248;47.320;15.998;2022-12-29T11:00:55;14.24;46.95
69938;DHT22;57248;47.320;15.998;2022-12-29T11:04:15;13.70;47.19
69938;DHT22;57248;47.320;15.998;2022-12-29T11:06:38;10.91;53.98
69938;DHT22;57248;47.320;15.998;2022-12-29T11:09:26;10.70;54.09
69938;DHT22;57248;47.320;15.998;2022-12-29T11:11:59;10.72;54.52
69938;DHT22;57248;47.320;15.998;2022-12-29T11:14:31;10.48;55.06
69938;DHT22;57248;47.320;15.998;2022-12-29T11:17:04;12.36;51.64
69938;DHT22;57248;47.320;15.998;2022-12-29T11:19:36;12.95;50.20
69938;DHT22;57248;47.320;15.998;2022-12-29T11:22:24;12.72;50.43
69938;DHT22;57248;47.320;15.998;2022-12-29T11:25:06;13.00;49.52
69938;DHT22;57248;47.320;15.998;2022-12-29T11:27:55;13.13;49.31
69938;DHT22;57248;47.320;15.998;2022-12-29T11:30:29;13.71;48.51
69938;DHT22;57248;47.320;15.998;2022-12-29T11:33:03;13.54;48.53
69938;DHT22;57248;47.320;15.998;2022-12-29T11:35:40;13.16;48.47
69938;DHT22;57248;47.320;15.998;2022-12-29T11:38:20;13.97;47.13
69938;DHT22;57248;47.320;15.998;2022-12-29T11:41:01;14.90;46.89
69938;DHT22;57248;47.320;15.998;2022-12-29T11:43:44;14.25;46.02
69938;DHT22;57248;47.320;15.998;2022-12-29T11:46:29;15.01;46.05
69938;DHT22;57248;47.320;15.998;2022-12-29T11:49:03;16.14;44.54
69938;DHT22;57248;47.320;15.998;2022-12-29T11:51:43;15.83;43.91
69938;DHT22;57248;47.320;15.998;2022-12-29T11:56:54;17.04;42.18
69938;DHT22;57248;47.320;15.998;2022-12-29T12:10:57;18.05;39.17
69938;DHT22;57248;47.320;15.998;2022-12-29T12:16:18;18.80;37.36
69938;DHT22;57248;47.320;15.998;2022-12-29T12:19:02;17.59;40.08
69938;DHT22;57248;47.320;15.998;2022-12-29T12:21:41;17.16;41.12
69938;DHT22;57248;47.320;15.998;2022-12-29T12:24:39;18.00;38.18
69938;DHT22;57248;47.320;15.998;2022-12-29T12:27:24;18.12;37.68
69938;DHT22;57248;47.320;15.998;2022-12-29T12:32:58;16.30;41.14
69938;DHT22;57248;47.320;15.998;2022-12-29T12:38:55;15.72;42.67
69938;DHT22;57248;47.320;15.998;2022-12-29T12:53:32;17.47;40.22
69938;DHT22;57248;47.320;15.998;2022-12-29T12:58:50;17.01;40.74
69938;DHT22;57248;47.320;15.998;2022-12-29T13:01:37;17.36;40.85
69938;DHT22;57248;47.320;15.998;2022-12-29T13:04:39;17.77;40.23
69938;DHT22;57248;47.320;15.998;2022-12-29T13:10:34;16.43;42.36
69938;DHT22;57248;47.320;15.998;2022-12-29T13:16:10;15.82;43.83
69938;DHT22;57248;47.320;15.998;2022-12-29T13:19:03;15.52;44.88
69938;DHT22;57248;47.320;15.998;2022-12-29T13:30:52;14.87;45.26
69938;DHT22;57248;47.320;15.998;2022-12-29T13:33:46;14.97;47.25
69938;DHT22;57248;47.320;15.998;2022-12-29T13:36:34;14.75;47.43
69938;DHT22;57248;47.320;15.998;2022-12-29T13:41:54;14.00;50.17
69938;DHT22;57248;47.320;15.998;2022-12-29T13:44:31;13.18;52.09
69938;DHT22;57248;47.320;15.998;2022-12-29T13:47:34;14.07;50.44
69938;DHT22;57248;47.320;15.998;2022-12-29T13:50:15;13.59;50.66
69938;DHT22;57248;47.320;15.998;2022-12-29T13:53:33;13.22;51.64
69938;DHT22;57248;47.320;15.998;2022-12-29T13:58:56;13.26;51.42
69938;DHT22;57248;47.320;15.998;2022-12-29T14:01:37;13.03;52.03
69938;DHT22;57248;47.320;15.998;2022-12-29T14:04:13;12.60;52.51
69938;DHT22;57248;47.320;15.998;2022-12-29T14:06:45;11.72;54.13
69938;DHT22;57248;47.320;15.998;2022-12-29T14:09:50;11.41;55.42
69938;DHT22;57248;47.320;15.998;2022-12-29T14:17:42;9.91;58.93
69938;DHT22;57248;47.320;15.998;2022-12-29T14:20:19;9.46;60.34
69938;DHT22;57248;47.320;15.998;2022-12-29T14:28:43;8.85;62.27
69938;DHT22;57248;47.320;15.998;2022-12-29T14:36:59;8.85;62.22
69938;DHT22;57248;47.320;15.998;2022-12-29T14:39:39;8.62;62.98
69938;DHT22;57248;47.320;15.998;2022-12-29T14:42:12;7.85;65.18
69938;DHT22;57248;47.320;15.998;2022-12-29T14:44:55;8.03;64.31
69938;DHT22;57248;47.320;15.998;2022-12-29T14:47:39;7.76;64.41
69938;DHT22;57248;47.320;15.998;2022-12-29T14:52:50;7.65;66.32
69938;DHT22;57248;47.320;15.998;2022-12-29T14:58:18;6.72;68.35
69938;DHT22;57248;47.320;15.998;2022-12-29T15:00:52;6.79;67.63
69938;DHT22;57248;47.320;15.998;2022-12-29T15:03:30;6.45;69.01
69938;DHT22;57248;47.320;15.998;2022-12-29T15:06:10;6.17;70.54
69938;DHT22;57248;47.320;15.998;2022-12-29T15:09:22;6.08;71.08
69938;DHT22;57248;47.320;15.998;2022-12-29T15:12:01;5.71;72.51
69938;DHT22;57248;47.320;15.998;2022-12-29T15:14:37;5.01;74.64
69938;DHT22;57248;47.320;15.998;2022-12-29T15:17:29;5.31;73.23
69938;DHT22;57248;47.320;15.998;2022-12-29T15:20:38;5.36;72.74
69938;DHT22;57248;47.320;15.998;2022-12-29T15:23:12;5.12;73.25
69938;DHT22;57248;47.320;15.998;2022-12-29T15:25:53;5.01;73.33
69938;DHT22;57248;47.320;15.998;2022-12-29T15:28:28;5.07;73.22
69938;DHT22;57248;47.320;15.998;2022-12-29T15:33:51;4.37;77.34
69938;DHT22;57248;47.320;15.998;2022-12-29T15:36:26;4.29;77.36
69938;DHT22;57248;47.320;15.998;2022-12-29T15:38:58;4.03;78.43
69938;DHT22;57248;47.320;15.998;2022-12-29T15:41:53;4.09;76.81
69938;DHT22;57248;47.320;15.998;2022-12-29T15:44:41;4.17;75.07
69938;DHT22;57248;47.320;15.998;2022-12-29T15:47:20;3.99;74.82
69938;DHT22;57248;47.320;15.998;2022-12-29T15:49:59;3.77;75.01
69938;DHT22;57248;47.320;15.998;2022-12-29T15:52:35;3.63;75.82
69938;DHT22;57248;47.320;15.998;2022-12-29T15:55:29;3.64;75.81
69938;DHT22;57248;47.320;15.998;2022-12-29T15:58:05;3.44;77.02
69938;DHT22;57248;47.320;15.998;2022-12-29T16:00:37;3.19;78.92
69938;DHT22;57248;47.320;15.998;2022-12-29T16:03:13;3.14;80.12
69938;DHT22;57248;47.320;15.998;2022-12-29T16:06:06;3.19;80.76
69938;DHT22;57248;47.320;15.998;2022-12-29T16:08:40;3.10;78.12
69938;DHT22;57248;47.320;15.998;2022-12-29T16:11:36;3.00;77.09
69938;DHT22;57248;47.320;15.998;2022-12-29T16:14:16;2.91;78.12
69938;DHT22;57248;47.320;15.998;2022-12-29T16:16:49;2.79;78.85
69938;DHT22;57248;47.320;15.998;2022-12-29T16:19:27;2.83;77.75
69938;DHT22;57248;47.320;15.998;2022-12-29T16:22:01;2.75;78.28
69938;DHT22;57248;47.320;15.998;2022-12-29T16:24:38;2.69;78.82
69938;DHT22;57248;47.320;15.998;2022-12-29T16:27:21;2.59;78.62
69938;DHT22;57248;47.320;15.998;2022-12-29T16:29:54;2.33;81.92
69938;DHT22;57248;47.320;15.998;2022-12-29T16:32:29;2.40;81.33
69938;DHT22;57248;47.320;15.998;2022-12-29T16:35:21;2.45;80.35
69938;DHT22;57248;47.320;15.998;2022-12-29T16:38:21;2.24;80.57
69938;DHT22;57248;47.320;15.998;2022-12-29T16:43:35;2.14;80.74
69938;DHT22;57248;47.320;15.998;2022-12-29T16:46:29;1.92;80.69
69938;DHT22;57248;47.320;15.998;2022-12-29T16:49:15;1.97;79.53
69938;DHT22;57248;47.320;15.998;2022-12-29T16:51:47;1.84;80.94
69938;DHT22;57248;47.320;15.998;2022-12-29T16:54:34;1.69;83.08
69938;DHT22;57248;47.320;15.998;2022-12-29T16:57:08;1.77;82.73
69938;DHT22;57248;47.320;15.998;2022-12-29T16:59:40;1.66;85.42
69938;DHT22;57248;47.320;15.998;2022-12-29T17:02:16;1.55;81.99
69938;DHT22;57248;47.320;15.998;2022-12-29T17:04:50;1.48;81.73
69938;DHT22;57248;47.320;15.998;2022-12-29T17:07:26;1.41;81.25
69938;DHT22;57248;47.320;15.998;2022-12-29T17:09:58;1.39;81.71
69938;DHT22;57248;47.320;15.998;2022-12-29T17:12:33;1.18;83.48
69938;DHT22;57248;47.320;15.998;2022-12-29T17:15:11;1.27;82.61
69938;DHT22;57248;47.320;15.998;2022-12-29T17:17:47;0.88;84.97
69938;DHT22;57248;47.320;15.998;2022-12-29T17:20:26;0.95;84.52
69938;DHT22;57248;47.320;15.998;2022-12-29T17:23:00;1.07;84.17
69938;DHT22;57248;47.320;15.998;2022-12-29T17:25:34;1.04;83.10
69938;DHT22;57248;47.320;15.998;2022-12-29T17:28:19;0.79;83.76
69938;DHT22;57248;47.320;15.998;2022-12-29T17:30:52;0.91;82.76
69938;DHT22;57248;47.320;15.998;2022-12-29T17:33:26;0.76;83.42
69938;DHT22;57248;47.320;15.998;2022-12-29T17:35:58;0.81;83.37
69938;DHT22;57248;47.320;15.998;2022-12-29T17:38:34;0.52;85.86
69938;DHT22;57248;47.320;15.998;2022-12-29T17:41:13;0.64;84.39
69938;DHT22;57248;47.320;15.998;2022-12-29T17:43:52;0.64;84.84
69938;DHT22;57248;47.320;15.998;2022-12-29T17:46:25;0.59;84.61
69938;DHT22;57248;47.320;15.998;2022-12-29T17:49:08;0.54;84.87
69938;DHT22;57248;47.320;15.998;2022-12-29T17:51:42;0.49;84.26
69938;DHT22;57248;47.320;15.998;2022-12-29T17:54:20;0.25;86.57
69938;DHT22;57248;47.320;15.998;2022-12-29T17:56:52;0.32;86.19
69938;DHT22;57248;47.320;15.998;2022-12-29T17:59:18;0.21;87.57
69938;DHT22;57248;47.320;15.998;2022-12-29T18:01:50;0.36;87.16
69938;DHT22;57248;47.320;15.998;2022-12-29T18:04:22;0.35;86.06
69938;DHT22;57248;47.320;15.998;2022-12-29T18:06:55;0.42;88.65
69938;DHT22;57248;47.320;15.998;2022-12-29T18:09:27;0.36;86.83
69938;DHT22;57248;47.320;15.998;2022-12-29T18:11:59;0.29;86.77
69938;DHT22;57248;47.320;15.998;2022-12-29T18:14:33;0.21;86.46
69938;DHT22;57248;47.320;15.998;2022-12-29T18:17:11;0.14;85.72
69938;DHT22;57248;47.320;15.998;2022-12-29T18:19:43;0.06;85.16
69938;DHT22;57248;47.320;15.998;2022-12-29T18:22:15;-0.03;85.35
69938;DHT22;57248;47.320;15.998;2022-12-29T18:24:48;-0.05;86.08
69938;DHT22;57248;47.320;15.998;2022-12-29T18:27:21;-0.09;86.75
69938;DHT22;57248;47.320;15.998;2022-12-29T18:29:53;-0.19;87.48
69938;DHT22;57248;47.320;15.998;2022-12-29T18:32:25;-0.20;85.30
69938;DHT22;57248;47.320;15.998;2022-12-29T18:34:58;-0.23;85.32
69938;DHT22;57248;47.320;15.998;2022-12-29T18:37:30;-0.20;86.19
69938;DHT22;57248;47.320;15.998;2022-12-29T18:40:02;-0.16;88.42
69938;DHT22;57248;47.320;15.998;2022-12-29T18:42:41;-0.19;86.84
69938;DHT22;57248;47.320;15.998;2022-12-29T18:45:21;-0.33;87.42